Time;durP1;ratioP1;P1;durP2;ratioP2;P2;SDS_P1;SDS_P2;PMS_P1;PMS_P2;Temp;Humidity;BMP_temperature;BMP_pressure;BME280_temperature;BME280_humidity;BME280_pressure;Samples;Min_cycle;Max_cycle;Signal;HPM_P1;HPM_P2
2022/03/30 00:01:22;;;;;;;36.68;24.35;;;;;;;1.93;68.64;99482.95;3223215;87;21069;-71
2022/03/30 00:06:13;;;;;;;41.90;26.12;;;;;;;1.94;68.49;99482.14;3239521;85;21162;-71
2022/03/30 00:11:05;;;;;;;44.55;26.68;;;;;;;1.94;68.67;99487.27;3241413;85;21488;-71
2022/03/30 00:15:56;;;;;;;41.00;26.45;;;;;;;1.91;68.67;99475.21;3223615;85;20923;-71
2022/03/30 00:20:48;;;;;;;41.40;26.07;;;;;;;1.85;68.60;99481.02;3225625;85;21459;-70
2022/03/30 00:25:39;;;;;;;53.48;29.10;;;;;;;1.84;68.70;99483.14;3225924;87;21404;-71
2022/03/30 00:30:31;;;;;;;48.33;28.12;;;;;;;1.85;68.81;99482.30;3238577;87;21013;-70
2022/03/30 00:35:23;;;;;;;36.53;22.95;;;;;;;1.80;68.79;99476.15;3240576;87;21056;-71
2022/03/30 00:40:16;;;;;;;49.70;26.07;;;;;;;1.70;68.40;99478.84;3267612;87;21591;-71
2022/03/30 00:45:15;;;;;;;45.70;28.32;;;;;;;1.67;69.02;99476.17;3193804;87;21321;-70
2022/03/30 00:50:10;;;;;;;42.43;27.65;;;;;;;1.66;68.96;99474.45;3272847;85;21006;-70
2022/03/30 00:55:02;;;;;;;41.75;25.08;;;;;;;1.61;68.76;99475.09;3301549;85;21003;-70
2022/03/30 00:59:54;;;;;;;41.58;24.70;;;;;;;1.50;68.97;99477.30;3289432;85;21135;-70
2022/03/30 01:04:46;;;;;;;42.30;25.95;;;;;;;1.46;68.85;99466.08;3296815;85;21015;-71
2022/03/30 01:09:37;;;;;;;46.60;27.73;;;;;;;1.45;69.23;99460.89;3322733;85;20997;-71
2022/03/30 01:14:29;;;;;;;52.35;27.87;;;;;;;1.43;69.39;99459.59;3300507;85;21038;-71
2022/03/30 01:19:21;;;;;;;40.98;26.20;;;;;;;1.38;69.29;99463.69;3321833;85;21005;-71
2022/03/30 01:24:13;;;;;;;44.08;28.30;;;;;;;1.38;69.22;99458.95;3326079;85;20990;-70
2022/03/30 01:32:25;;;;;;;52.15;32.13;;;;;;;1.39;69.09;99453.02;3296710;85;20983;-71
2022/03/30 01:33:58;;;;;;;46.68;28.73;;;;;;;1.40;70.61;99449.23;3259437;85;21021;-71
2022/03/30 01:38:50;;;;;;;45.85;28.92;;;;;;;1.41;70.13;99454.80;3277600;85;20985;-70
2022/03/30 01:43:41;;;;;;;49.77;28.80;;;;;;;1.44;70.18;99442.52;3300006;85;20978;-71
2022/03/30 01:48:32;;;;;;;54.18;30.17;;;;;;;1.40;69.90;99445.39;3324275;85;22179;-71
2022/03/30 01:53:23;;;;;;;46.37;28.62;;;;;;;1.31;70.37;99442.53;3268368;85;21553;-71
2022/03/30 01:58:17;;;;;;;51.05;30.30;;;;;;;1.29;70.30;99444.17;3290519;85;21017;-70
2022/03/30 02:03:08;;;;;;;46.18;28.83;;;;;;;1.28;70.72;99440.72;3228221;85;20954;-70
2022/03/30 02:08:00;;;;;;;46.23;29.92;;;;;;;1.26;70.59;99433.82;3269805;85;20926;-70
2022/03/30 02:12:54;;;;;;;45.23;28.25;;;;;;;1.25;71.24;99425.66;3181946;85;21181;-70
2022/03/30 02:17:46;;;;;;;47.62;28.67;;;;;;;1.25;71.03;99429.12;3246070;86;21320;-70
2022/03/30 02:22:37;;;;;;;49.10;30.20;;;;;;;1.21;70.69;99430.23;3238128;85;21077;-70
2022/03/30 02:27:28;;;;;;;45.50;27.52;;;;;;;1.11;70.50;99424.80;3268217;85;21587;-70
2022/03/30 02:32:20;;;;;;;38.23;24.43;;;;;;;1.01;70.46;99417.62;3250454;85;21142;-70
2022/03/30 02:37:13;;;;;;;45.03;27.73;;;;;;;0.91;70.36;99421.95;3265243;86;21019;-70
2022/03/30 02:42:07;;;;;;;47.73;27.67;;;;;;;0.84;70.33;99417.05;3240945;85;20990;-70
2022/03/30 02:46:58;;;;;;;45.67;27.32;;;;;;;0.75;70.23;99411.20;3267466;85;20985;-70
2022/03/30 02:51:49;;;;;;;41.42;25.50;;;;;;;0.67;70.13;99411.73;3277762;85;20945;-70
2022/03/30 02:56:40;;;;;;;45.25;25.75;;;;;;;0.57;70.26;99406.69;3314556;84;21065;-70
2022/03/30 03:01:32;;;;;;;45.35;27.67;;;;;;;0.48;70.20;99405.08;3320794;84;21084;-71
2022/03/30 03:06:23;;;;;;;45.03;26.85;;;;;;;0.39;70.09;99399.22;3291717;86;20963;-71
2022/03/30 03:11:15;;;;;;;39.53;25.20;;;;;;;0.34;70.64;99383.73;3195066;87;21007;-71
2022/03/30 03:16:06;;;;;;;49.03;27.90;;;;;;;0.35;70.55;99399.93;3249783;86;21000;-70
2022/03/30 03:20:58;;;;;;;46.48;26.82;;;;;;;0.31;70.81;99404.06;3313940;84;20963;-70
2022/03/30 03:25:49;;;;;;;44.20;26.87;;;;;;;0.32;70.85;99396.87;3276795;84;21114;-70
2022/03/30 03:30:42;;;;;;;49.55;26.95;;;;;;;0.33;70.86;99392.20;3258517;86;21050;-71
2022/03/30 03:35:34;;;;;;;45.67;26.97;;;;;;;0.32;70.88;99387.92;3272506;84;21246;-70
2022/03/30 03:40:27;;;;;;;52.03;29.40;;;;;;;0.27;70.58;99389.43;3281115;84;20954;-70
2022/03/30 03:45:19;;;;;;;44.18;27.55;;;;;;;0.19;70.69;99398.48;3319687;84;20999;-71
2022/03/30 03:50:11;;;;;;;50.63;26.95;;;;;;;0.14;70.56;99397.44;3325426;84;22204;-71
2022/03/30 03:55:04;;;;;;;45.80;25.77;;;;;;;0.05;70.59;99394.13;3330076;84;20969;-70
2022/03/30 03:59:54;;;;;;;52.30;29.40;;;;;;;0.03;70.56;99396.17;3314845;84;20926;-70
2022/03/30 04:04:46;;;;;;;41.15;25.30;;;;;;;0.01;70.85;99396.53;3359190;84;21681;-70
2022/03/30 04:09:37;;;;;;;51.88;26.82;;;;;;;-0.07;70.45;99395.83;3357828;84;21547;-71
2022/03/30 04:14:32;;;;;;;51.40;27.98;;;;;;;-0.10;70.76;99389.73;3313583;84;22017;-70
2022/03/30 04:19:26;;;;;;;54.18;30.37;;;;;;;-0.14;70.59;99391.30;3313084;84;21043;-70
2022/03/30 04:24:16;;;;;;;54.10;28.23;;;;;;;-0.16;70.92;99385.27;3306389;84;21025;-72
2022/03/30 04:29:08;;;;;;;53.13;29.85;;;;;;;-0.14;70.92;99386.19;3283641;84;21061;-72
2022/03/30 04:34:02;;;;;;;48.63;28.90;;;;;;;-0.09;71.07;99393.63;3319663;84;20993;-71
2022/03/30 04:38:57;;;;;;;51.83;29.12;;;;;;;-0.03;71.26;99401.93;3308221;84;23253;-70
2022/03/30 04:43:49;;;;;;;48.25;29.50;;;;;;;0.05;71.30;99404.35;3329860;84;21418;-71
2022/03/30 04:48:41;;;;;;;50.43;27.55;;;;;;;0.11;71.05;99397.34;3293275;84;21627;-72
2022/03/30 04:53:32;;;;;;;88.30;33.80;;;;;;;0.18;70.98;99396.77;3239481;86;21075;-72
2022/03/30 04:58:24;;;;;;;55.12;30.55;;;;;;;0.22;70.71;99390.94;3260011;87;21583;-71
2022/03/30 05:03:16;;;;;;;52.15;29.90;;;;;;;0.35;70.94;99396.95;3261907;85;22469;-72
2022/03/30 05:08:08;;;;;;;55.45;31.37;;;;;;;0.48;70.94;99392.29;3228465;85;21622;-71
2022/03/30 05:13:00;;;;;;;53.70;30.65;;;;;;;0.62;70.98;99388.95;3217311;87;20990;-72
2022/03/30 05:17:51;;;;;;;53.40;30.77;;;;;;;0.75;70.84;99396.23;3240124;85;21031;-71
2022/03/30 05:22:44;;;;;;;58.98;35.92;;;;;;;0.90;70.83;99398.47;3258514;87;21320;-71
2022/03/30 05:27:37;;;;;;;59.75;36.53;;;;;;;1.03;71.39;99404.45;3245461;87;21985;-72
2022/03/30 05:32:29;;;;;;;57.60;34.05;;;;;;;1.21;71.53;99400.78;3288789;86;20998;-72
2022/03/30 05:37:21;;;;;;;66.12;40.92;;;;;;;1.43;71.29;99401.96;3244954;87;20985;-72
2022/03/30 05:42:17;;;;;;;71.20;43.52;;;;;;;1.68;71.48;99405.28;3289999;85;20954;-72
2022/03/30 05:47:10;;;;;;;66.50;37.83;;;;;;;1.98;71.37;99404.50;3224357;87;21052;-73
2022/03/30 05:52:02;;;;;;;66.10;38.65;;;;;;;2.31;71.27;99404.64;3248287;85;21523;-72
2022/03/30 05:57:01;;;;;;;67.87;38.75;;;;;;;2.50;71.28;99409.88;3284685;84;21124;-71
2022/03/30 06:01:53;;;;;;;73.67;41.23;;;;;;;2.70;71.26;99415.98;3293921;84;21365;-72
2022/03/30 06:06:44;;;;;;;68.37;39.75;;;;;;;2.89;71.20;99410.52;3297437;84;21021;-73
2022/03/30 06:11:36;;;;;;;63.52;39.05;;;;;;;3.05;71.20;99404.95;3318776;84;21518;-70
2022/03/30 06:16:27;;;;;;;58.10;36.63;;;;;;;3.23;71.27;99406.27;3300760;84;21079;-69
2022/03/30 06:21:19;;;;;;;56.08;35.05;;;;;;;3.43;71.18;99402.52;3339927;84;20987;-70
2022/03/30 06:26:11;;;;;;;53.92;37.05;;;;;;;3.66;70.93;99398.32;3327073;84;21077;-69
2022/03/30 06:31:03;;;;;;;59.10;36.80;;;;;;;3.93;70.98;99397.22;3322970;84;21023;-70
2022/03/30 06:35:54;;;;;;;55.43;35.08;;;;;;;4.15;70.71;99398.16;3275557;84;21118;-69
2022/03/30 06:40:47;;;;;;;50.80;34.80;;;;;;;4.38;70.53;99398.65;3311405;84;21150;-70
2022/03/30 06:45:39;;;;;;;49.90;33.73;;;;;;;4.51;69.94;99396.33;3271378;84;21034;-69
2022/03/30 06:50:32;;;;;;;54.30;34.23;;;;;;;4.69;69.44;99393.25;3301006;84;21011;-69
2022/03/30 06:55:25;;;;;;;43.45;30.20;;;;;;;4.91;69.36;99391.52;3288353;85;20978;-69
2022/03/30 07:00:17;;;;;;;55.45;36.75;;;;;;;5.20;68.42;99397.60;3229220;85;21457;-69
2022/03/30 07:05:10;;;;;;;55.70;34.80;;;;;;;5.44;68.41;99395.88;3260720;86;21127;-70
2022/03/30 07:10:16;;;;;;;50.90;34.18;;;;;;;5.75;67.78;99391.63;3276716;84;21560;-70
2022/03/30 07:15:08;;;;;;;52.00;34.60;;;;;;;6.01;67.38;99395.50;3250794;85;21523;-70
2022/03/30 07:20:00;;;;;;;47.05;30.02;;;;;;;6.23;66.52;99400.95;3241311;86;21097;-71
2022/03/30 07:24:51;;;;;;;40.83;27.90;;;;;;;6.34;66.17;99403.24;3213382;84;20983;-69
2022/03/30 07:29:44;;;;;;;38.78;28.25;;;;;;;8.25;63.36;99389.90;3239869;85;21068;-69
2022/03/30 07:34:40;;;;;;;38.60;26.20;;;;;;;10.77;60.02;99386.52;3241750;87;21032;-68
2022/03/30 07:39:29;;;;;;;35.45;26.85;;;;;;;12.57;57.36;99384.54;3223090;85;20959;-68
2022/03/30 07:44:21;;;;;;;28.92;21.87;;;;;;;14.61;56.09;99386.45;3224478;86;21074;-69
2022/03/30 07:49:12;;;;;;;25.62;18.75;;;;;;;17.67;51.09;99368.19;3172719;86;20989;-69
2022/03/30 07:54:03;;;;;;;23.50;19.35;;;;;;;20.17;47.59;99360.37;3239051;86;22717;-69
2022/03/30 07:58:56;;;;;;;21.68;16.07;;;;;;;21.71;44.77;99368.15;3218080;85;21031;-70
2022/03/30 08:03:47;;;;;;;20.17;16.37;;;;;;;21.41;42.50;99366.53;3223657;86;20907;-70
2022/03/30 08:08:39;;;;;;;17.50;14.47;;;;;;;20.49;41.77;99376.99;3265793;84;21088;-69
2022/03/30 08:13:31;;;;;;;17.42;13.30;;;;;;;19.16;42.02;99383.02;3330308;84;22571;-68
2022/03/30 08:18:22;;;;;;;15.18;10.98;;;;;;;18.37;41.06;99396.48;3301788;84;21053;-70
2022/03/30 08:23:14;;;;;;;14.80;12.23;;;;;;;19.81;38.92;99383.43;3270183;84;21526;-70
2022/03/30 08:28:05;;;;;;;16.12;14.13;;;;;;;20.22;37.59;99383.05;3251557;86;21432;-69
2022/03/30 08:32:57;;;;;;;17.67;12.58;;;;;;;19.50;37.33;99385.16;3215807;87;21059;-70
2022/03/30 08:37:49;;;;;;;15.30;12.00;;;;;;;18.47;38.18;99401.82;3159955;88;21581;-70
2022/03/30 08:42:42;;;;;;;17.17;12.43;;;;;;;19.31;36.86;99394.25;3242329;87;22256;-69
2022/03/30 08:47:35;;;;;;;16.37;11.85;;;;;;;20.11;36.53;99383.05;3299024;84;21017;-70
2022/03/30 08:52:26;;;;;;;14.73;10.68;;;;;;;20.01;35.70;99383.05;3316321;84;20932;-70
2022/03/30 08:57:18;;;;;;;22.75;10.28;;;;;;;20.70;35.02;99388.41;3298688;85;21481;-70
2022/03/30 09:02:10;;;;;;;12.53;8.70;;;;;;;20.43;33.05;99387.38;3324787;85;20950;-70
2022/03/30 09:07:02;;;;;;;14.65;9.30;;;;;;;18.44;33.95;99393.18;3229566;85;21033;-70
2022/03/30 09:11:55;;;;;;;15.03;7.83;;;;;;;18.08;34.89;99399.69;3275135;85;20990;-69
2022/03/30 09:16:51;;;;;;;13.45;6.37;;;;;;;18.18;35.57;99390.16;3297025;85;21434;-69
2022/03/30 09:21:54;;;;;;;8.80;6.23;;;;;;;19.13;33.95;99383.14;3285610;85;21512;-70
2022/03/30 09:26:47;;;;;;;11.15;6.08;;;;;;;18.78;31.87;99387.52;3302534;84;22174;-70
2022/03/30 09:31:41;;;;;;;11.35;7.33;;;;;;;17.58;33.32;99391.72;3288838;84;21033;-69
2022/03/30 09:36:37;;;;;;;11.60;7.33;;;;;;;16.99;34.38;99383.52;3302552;85;21034;-70
2022/03/30 09:41:46;;;;;;;10.45;6.90;;;;;;;16.73;34.38;99392.98;3326421;84;21009;-72
2022/03/30 09:47:05;;;;;;;9.40;7.22;;;;;;;19.16;32.86;99373.34;3211933;87;21599;-69
2022/03/30 09:51:56;;;;;;;10.95;7.45;;;;;;;20.85;31.24;99369.66;3183767;87;21083;-69
2022/03/30 09:56:47;;;;;;;11.43;7.33;;;;;;;19.60;31.46;99377.70;3117046;88;21385;-69
2022/03/30 10:01:38;;;;;;;15.65;6.37;;;;;;;17.81;31.52;99360.69;3142425;88;21533;-69
2022/03/30 10:06:36;;;;;;;11.95;7.35;;;;;;;16.23;33.15;99375.61;3216877;87;21091;-69
2022/03/30 10:11:29;;;;;;;12.82;7.17;;;;;;;15.02;34.85;99383.39;3222655;87;21046;-69
2022/03/30 10:16:23;;;;;;;10.38;6.78;;;;;;;14.16;35.53;99385.99;3236634;87;21045;-68
2022/03/30 10:21:31;;;;;;;9.55;6.10;;;;;;;14.05;35.98;99382.27;3231894;84;21042;-67
2022/03/30 10:26:51;;;;;;;11.35;6.30;;;;;;;14.28;35.52;99383.60;3316319;84;21014;-68
2022/03/30 10:31:42;;;;;;;9.45;5.33;;;;;;;14.56;35.61;99377.80;3253547;86;21003;-68
2022/03/30 10:36:34;;;;;;;11.63;7.35;;;;;;;17.95;33.28;99365.98;3145796;87;21592;-68
2022/03/30 10:41:51;;;;;;;11.48;7.78;;;;;;;20.46;30.88;99357.33;3170255;86;47470;-68
2022/03/30 10:46:43;;;;;;;11.95;6.37;;;;;;;18.41;32.11;99368.28;3243767;86;28327;-68
2022/03/30 10:51:34;;;;;;;9.33;6.20;;;;;;;16.66;33.14;99362.58;3161182;86;21050;-69
2022/03/30 10:56:28;;;;;;;13.18;6.87;;;;;;;15.87;33.17;99363.91;3178782;87;21050;-70
2022/03/30 11:01:34;;;;;;;12.05;6.10;;;;;;;16.48;33.24;99368.37;3201780;88;21078;-70
2022/03/30 11:06:28;;;;;;;8.47;6.63;;;;;;;17.37;31.64;99360.43;3209051;85;21001;-69
2022/03/30 11:11:26;;;;;;;9.70;6.05;;;;;;;16.25;32.52;99369.87;3263037;85;20983;-69
2022/03/30 11:16:17;;;;;;;7.70;5.87;;;;;;;16.24;32.97;99370.78;3317924;85;21046;-70
2022/03/30 11:21:18;;;;;;;8.38;6.10;;;;;;;18.46;31.33;99362.39;3310144;84;21504;-69
2022/03/30 11:26:09;;;;;;;7.78;6.45;;;;;;;18.66;30.23;99357.70;3355898;84;21484;-69
2022/03/30 11:31:04;;;;;;;7.67;4.60;;;;;;;17.27;31.54;99351.12;3254252;84;21025;-70
2022/03/30 11:35:57;;;;;;;6.87;4.85;;;;;;;17.37;31.17;99353.02;3350288;84;21509;-70
2022/03/30 11:40:54;;;;;;;7.22;4.65;;;;;;;16.65;31.45;99355.63;3291393;84;21002;-71
2022/03/30 11:45:46;;;;;;;;;;;;;;;15.94;31.35;99352.36;3328746;84;21590;-71
2022/03/30 11:50:46;;;;;;;6.65;4.15;;;;;;;17.30;31.12;99345.31;3344476;84;20093;-69
2022/03/30 11:56:00;;;;;;;8.10;4.92;;;;;;;17.44;30.87;99339.61;3300962;84;21969;-70
2022/03/30 12:00:56;;;;;;;9.20;5.47;;;;;;;17.25;30.89;99342.44;3330835;84;21034;-71
2022/03/30 12:05:51;;;;;;;9.60;6.47;;;;;;;16.61;31.66;99342.16;3269631;85;22597;-70
2022/03/30 12:10:41;;;;;;;11.65;6.08;;;;;;;16.26;32.35;99339.25;3300090;85;21029;-71
2022/03/30 12:15:35;;;;;;;10.58;6.67;;;;;;;15.87;32.28;99338.16;3262781;84;21014;-70
2022/03/30 12:20:33;;;;;;;12.95;6.55;;;;;;;15.09;33.06;99332.62;3271658;85;21026;-70
2022/03/30 12:25:29;;;;;;;11.83;5.97;;;;;;;14.31;33.78;99353.48;3295491;84;21631;-69
2022/03/30 12:30:23;;;;;;;10.28;5.35;;;;;;;14.04;34.58;99351.82;3315633;85;21014;-69
2022/03/30 12:35:16;;;;;;;8.38;5.00;;;;;;;13.63;34.54;99354.73;3311301;85;21002;-69
2022/03/30 12:40:18;;;;;;;10.28;5.03;;;;;;;13.35;34.82;99349.96;3265361;85;21532;-69
2022/03/30 12:45:12;;;;;;;9.93;5.35;;;;;;;13.05;35.22;99342.59;3268362;85;20994;-71
2022/03/30 12:50:15;;;;;;;11.45;5.42;;;;;;;12.77;35.65;99341.70;3270120;85;23651;-71
2022/03/30 12:55:32;;;;;;;25.85;6.78;;;;;;;12.40;36.32;99345.63;3287329;83;21694;-72
2022/03/30 13:00:40;;;;;;;11.43;5.08;;;;;;;12.27;36.71;99343.19;3270422;84;21122;-69
2022/03/30 13:05:32;;;;;;;13.25;4.83;;;;;;;12.69;36.13;99337.87;3295435;84;21014;-70
2022/03/30 13:10:23;;;;;;;13.22;5.53;;;;;;;12.87;36.03;99338.05;3292612;84;21270;-70
2022/03/30 13:15:18;;;;;;;8.73;4.62;;;;;;;12.76;36.00;99338.66;3237048;86;21320;-71
2022/03/30 13:20:10;;;;;;;10.50;5.03;;;;;;;12.57;36.36;99340.22;3229015;87;21495;-70
2022/03/30 13:25:02;;;;;;;10.48;5.75;;;;;;;12.52;36.88;99338.11;3240648;86;21038;-71
2022/03/30 13:29:56;;;;;;;9.73;5.58;;;;;;;12.34;36.83;99346.14;3181067;87;21031;-70
2022/03/30 13:34:49;;;;;;;9.60;4.97;;;;;;;12.18;36.83;99341.58;3221377;87;21196;-70
2022/03/30 13:39:41;;;;;;;11.38;5.83;;;;;;;12.12;36.95;99346.39;3243831;85;22114;-69
2022/03/30 13:44:32;;;;;;;14.78;6.03;;;;;;;12.11;37.18;99339.47;3271492;84;20993;-70
2022/03/30 13:49:41;;;;;;;9.98;5.33;;;;;;;12.15;37.21;99346.36;3319064;83;21028;-68
2022/03/30 13:54:16;;;;;;;9.30;4.67;;;;;;;12.23;37.25;99342.80;3311148;84;21029;-69
2022/03/30 13:59:07;;;;;;;10.40;5.20;;;;;;;12.15;36.87;99337.70;3224612;85;20985;-68
2022/03/30 14:03:59;;;;;;;9.95;4.97;;;;;;;12.03;37.25;99342.59;3287153;85;21200;-69
2022/03/30 14:08:50;;;;;;;8.30;5.83;;;;;;;11.92;37.32;99335.34;3257740;85;20989;-69
2022/03/30 14:13:45;;;;;;;11.25;5.92;;;;;;;11.96;36.99;99330.06;3229105;85;21024;-70
2022/03/30 14:18:39;;;;;;;10.18;5.85;;;;;;;12.22;37.17;99330.67;3213413;87;20990;-70
2022/03/30 14:23:34;;;;;;;10.63;4.97;;;;;;;12.20;37.02;99326.33;3258935;85;21696;-70
2022/03/30 14:28:26;;;;;;;19.15;5.37;;;;;;;11.98;36.85;99325.73;3246869;85;22375;-69
2022/03/30 14:33:17;;;;;;;8.20;5.00;;;;;;;11.83;37.28;99329.30;3200607;85;21179;-70
2022/03/30 14:38:10;;;;;;;9.43;5.03;;;;;;;11.72;37.27;99325.95;3271854;85;20973;-70
2022/03/30 14:43:02;;;;;;;9.40;5.00;;;;;;;11.67;37.48;99322.53;3279736;85;21219;-69
2022/03/30 14:47:53;;;;;;;8.45;4.92;;;;;;;11.64;37.63;99316.92;3237384;86;20993;-70
2022/03/30 14:52:45;;;;;;;10.10;4.55;;;;;;;11.60;37.70;99307.84;3243089;86;21621;-66
2022/03/30 14:57:37;;;;;;;10.30;4.87;;;;;;;11.58;37.58;99304.41;3291056;84;21029;-69
2022/03/30 15:02:28;;;;;;;10.15;4.33;;;;;;;11.56;37.97;99307.46;3329862;84;21017;-70
2022/03/30 15:07:20;;;;;;;11.68;5.78;;;;;;;11.53;37.89;99294.02;3351632;84;20968;-69
2022/03/30 15:12:15;;;;;;;9.43;5.40;;;;;;;11.43;38.09;99295.86;3313594;84;20993;-71
2022/03/30 15:17:08;;;;;;;8.50;4.17;;;;;;;11.30;37.99;99295.53;3333527;84;21457;-70
2022/03/30 15:22:00;;;;;;;9.65;4.30;;;;;;;11.23;37.98;99289.95;3322677;84;21498;-69
2022/03/30 15:26:52;;;;;;;9.43;5.10;;;;;;;11.09;38.22;99289.20;3353189;84;20961;-70
2022/03/30 15:31:44;;;;;;;9.90;5.47;;;;;;;10.98;38.40;99287.58;3336508;84;21434;-70
2022/03/30 15:36:37;;;;;;;7.62;5.05;;;;;;;10.93;37.85;99281.54;3357802;84;21017;-69
2022/03/30 15:41:28;;;;;;;9.63;4.53;;;;;;;10.85;37.55;99284.17;3323507;84;21589;-70
2022/03/30 15:46:20;;;;;;;16.85;6.08;;;;;;;10.68;37.49;99289.50;3352504;82;21003;-70
2022/03/30 15:51:17;;;;;;;10.20;6.30;;;;;;;10.48;37.71;99291.34;3310724;84;21893;-70
2022/03/30 15:56:06;;;;;;;11.63;5.62;;;;;;;10.33;38.30;99292.73;3282625;84;20891;-71
2022/03/30 16:00:58;;;;;;;11.18;5.45;;;;;;;10.23;38.27;99296.64;3225904;85;21004;-70
2022/03/30 16:05:52;;;;;;;11.70;5.58;;;;;;;10.14;38.21;99299.70;3224524;85;21588;-70
2022/03/30 16:10:45;;;;;;;10.88;6.37;;;;;;;10.03;38.08;99294.55;3220620;85;21032;-70
2022/03/30 16:15:36;;;;;;;11.85;6.15;;;;;;;9.95;38.59;99297.63;3271338;85;21064;-70
2022/03/30 16:20:28;;;;;;;9.65;6.83;;;;;;;9.82;39.04;99297.66;3225004;85;21053;-70
2022/03/30 16:25:22;;;;;;;12.80;6.75;;;;;;;9.66;38.72;99305.91;3251535;85;21531;-70
2022/03/30 16:30:15;;;;;;;19.05;10.75;;;;;;;9.51;39.12;99303.32;3241044;86;22273;-70
2022/03/30 16:35:07;;;;;;;11.73;6.30;;;;;;;9.31;39.58;99304.20;3246922;86;21045;-70
2022/03/30 16:40:00;;;;;;;15.43;8.43;;;;;;;9.12;39.42;99303.36;3243355;87;21527;-69
2022/03/30 16:44:53;;;;;;;7.78;4.72;;;;;;;8.94;40.91;99300.73;3247277;85;20993;-69
2022/03/30 16:49:44;;;;;;;9.18;4.20;;;;;;;8.72;41.86;99304.59;3259238;85;21005;-70
2022/03/30 16:54:36;;;;;;;11.88;4.62;;;;;;;8.49;42.45;99301.09;3216376;85;21750;-69
2022/03/30 16:59:27;;;;;;;18.75;10.08;;;;;;;8.29;43.18;99301.86;3296123;84;21023;-69
2022/03/30 17:04:18;;;;;;;36.63;9.58;;;;;;;8.13;42.99;99305.25;3315342;84;21029;-69
2022/03/30 17:14:20;;;;;;;38.83;8.55;;;;;;;7.93;43.06;99306.02;3329749;84;21603;-69
2022/03/30 17:19:12;;;;;;;27.60;6.40;;;;;;;7.61;44.61;99321.36;3277304;82;21150;-69
2022/03/30 17:24:04;;;;;;;13.15;4.87;;;;;;;7.61;44.61;99321.36;3255469;84;21786;-69
2022/03/30 17:28:55;;;;;;;10.95;5.25;;;;;;;7.43;45.18;99314.34;3300259;84;21503;-69
2022/03/30 17:33:46;;;;;;;11.15;5.33;;;;;;;7.37;45.81;99313.02;3309571;82;20993;-69
2022/03/30 17:38:37;;;;;;;10.15;6.20;;;;;;;7.32;45.85;99315.99;3283630;84;22210;-69
2022/03/30 17:43:29;;;;;;;16.23;6.25;;;;;;;7.23;46.21;99325.39;3292997;82;22422;-69
2022/03/30 17:53:30;;;;;;;11.25;6.72;;;;;;;7.06;45.77;99338.59;3331538;84;21549;-69
2022/03/30 17:58:23;;;;;;;14.95;6.83;;;;;;;7.10;45.26;99349.42;3284851;85;20995;-69
2022/03/30 18:03:15;;;;;;;10.30;6.47;;;;;;;7.11;45.42;99339.50;3222396;85;21520;-69
2022/03/30 18:08:07;;;;;;;12.28;6.70;;;;;;;7.04;46.04;99341.59;3243988;85;22172;-69
2022/03/30 18:12:58;;;;;;;15.78;7.75;;;;;;;7.03;46.14;99361.84;3262726;85;21194;-69
2022/03/30 18:17:50;;;;;;;11.73;7.42;;;;;;;7.03;46.14;99361.84;3216645;85;21575;-69
2022/03/30 18:22:44;;;;;;;12.88;8.03;;;;;;;7.00;46.32;99361.37;3243744;85;21637;-69
2022/03/30 18:27:35;;;;;;;11.75;8.33;;;;;;;6.99;46.60;99363.94;3225119;85;21043;-69
2022/03/30 18:32:27;;;;;;;17.17;7.72;;;;;;;6.88;46.83;99370.29;3239460;85;21030;-69
2022/03/30 18:37:18;;;;;;;10.32;7.20;;;;;;;6.76;47.09;99382.67;3254596;85;21504;-69
2022/03/30 18:42:09;;;;;;;10.32;6.83;;;;;;;6.68;47.37;99384.28;3226710;85;21069;-69
2022/03/30 18:47:01;;;;;;;10.13;6.80;;;;;;;6.57;47.71;99393.20;3240750;85;20924;-69
2022/03/30 18:51:53;;;;;;;13.08;6.47;;;;;;;6.51;47.78;99397.02;3230518;85;21622;-69
2022/03/30 18:56:44;;;;;;;9.03;6.30;;;;;;;6.42;47.95;99400.34;3239582;85;21567;-69
2022/03/30 19:01:36;;;;;;;15.40;7.20;;;;;;;6.37;48.17;99403.30;3289425;84;21081;-69
2022/03/30 19:06:31;;;;;;;9.93;6.95;;;;;;;6.29;48.33;99400.59;3288825;84;21025;-69
2022/03/30 19:11:21;;;;;;;11.38;7.22;;;;;;;6.21;48.70;99402.66;3262625;83;22377;-69
2022/03/30 19:16:13;;;;;;;12.80;6.78;;;;;;;6.10;48.91;99414.98;3318115;84;21521;-69
2022/03/30 19:21:04;;;;;;;9.73;6.67;;;;;;;5.98;49.08;99413.50;3341736;84;21887;-69
2022/03/30 19:25:56;;;;;;;9.93;6.90;;;;;;;5.88;49.45;99415.06;3276023;83;21474;-69
2022/03/30 19:30:49;;;;;;;11.75;7.97;;;;;;;5.76;49.75;99415.27;3289695;84;21005;-69
2022/03/30 19:35:40;;;;;;;10.98;6.80;;;;;;;5.66;49.92;99416.42;3313978;84;20986;-69
2022/03/30 19:40:32;;;;;;;11.00;7.65;;;;;;;5.58;50.29;99421.90;3312720;84;21289;-69
2022/03/30 19:45:24;;;;;;;12.35;7.70;;;;;;;5.49;50.36;99423.90;3308763;84;21101;-69
2022/03/30 19:50:17;;;;;;;12.60;7.28;;;;;;;5.46;50.51;99426.41;3254309;84;21065;-69
2022/03/30 19:55:10;;;;;;;13.20;8.33;;;;;;;5.41;50.70;99427.19;3320892;84;20979;-69
2022/03/30 20:00:06;;;;;;;11.20;6.78;;;;;;;5.34;50.93;99432.22;3265436;84;21011;-69
2022/03/30 20:04:57;;;;;;;14.50;9.20;;;;;;;5.27;51.04;99438.10;3305399;84;20994;-69
2022/03/30 20:09:48;;;;;;;10.53;6.12;;;;;;;5.17;51.12;99440.09;3261056;85;21044;-69
2022/03/30 20:14:41;;;;;;;9.15;6.22;;;;;;;5.10;51.33;99436.95;3334019;84;21045;-69
2022/03/30 20:19:33;;;;;;;9.75;6.53;;;;;;;5.04;51.39;99439.40;3281939;84;21702;-69
2022/03/30 20:24:24;;;;;;;8.98;6.40;;;;;;;4.98;51.62;99434.14;3277569;84;21519;-69
2022/03/30 20:29:15;;;;;;;13.08;7.53;;;;;;;4.96;51.78;99438.83;3266256;84;20977;-69
2022/03/30 20:34:07;;;;;;;12.58;7.47;;;;;;;4.89;51.87;99433.12;3303496;84;21291;-70
2022/03/30 20:38:59;;;;;;;10.82;6.42;;;;;;;4.80;51.99;99432.95;3327512;84;21595;-69
2022/03/30 20:43:55;;;;;;;10.93;6.85;;;;;;;4.76;52.18;99441.03;3273674;84;21257;-69
2022/03/30 20:48:47;;;;;;;10.72;7.15;;;;;;;4.69;52.44;99437.87;3350823;83;21097;-69
2022/03/30 20:53:39;;;;;;;12.45;7.47;;;;;;;4.65;52.39;99445.50;3312146;84;21494;-68
2022/03/30 20:58:30;;;;;;;13.22;8.95;;;;;;;4.55;52.58;99439.30;3295329;84;21186;-68
2022/03/30 21:03:21;;;;;;;14.93;7.75;;;;;;;4.54;52.78;99443.59;3234958;87;21531;-69
2022/03/30 21:08:13;;;;;;;16.10;8.43;;;;;;;4.50;52.82;99439.20;3261309;85;21032;-69
2022/03/30 21:13:04;;;;;;;14.25;9.40;;;;;;;4.46;52.99;99442.55;3249263;85;21523;-69
2022/03/30 21:17:58;;;;;;;14.78;8.75;;;;;;;4.42;53.11;99447.19;3239496;87;21030;-69
2022/03/30 21:22:49;;;;;;;10.48;7.25;;;;;;;4.39;53.24;99448.41;3285934;85;21152;-69
2022/03/30 21:27:42;;;;;;;9.73;7.55;;;;;;;4.40;53.38;99454.02;3248255;84;21495;-69
2022/03/30 21:32:33;;;;;;;12.73;7.22;;;;;;;4.39;53.42;99450.98;3264770;85;21004;-69
2022/03/30 21:37:25;;;;;;;9.68;6.28;;;;;;;4.29;53.58;99449.03;3222937;85;21031;-69
2022/03/30 21:42:18;;;;;;;7.83;5.62;;;;;;;4.28;53.70;99442.17;3244400;86;22182;-68
2022/03/30 21:47:10;;;;;;;8.10;5.55;;;;;;;4.18;53.80;99445.80;3216654;85;21028;-69
2022/03/30 21:52:03;;;;;;;7.78;5.25;;;;;;;4.06;54.26;99441.69;3258901;86;20994;-69
2022/03/30 21:56:56;;;;;;;7.10;5.30;;;;;;;3.96;54.70;99449.59;3232416;85;20979;-69
2022/03/30 22:01:47;;;;;;;9.15;5.47;;;;;;;3.88;55.19;99461.81;3316555;85;21014;-69
2022/03/30 22:06:39;;;;;;;8.18;6.22;;;;;;;3.82;55.73;99454.41;3270248;85;20999;-69
2022/03/30 22:11:31;;;;;;;14.65;6.35;;;;;;;3.74;56.16;99458.52;3310623;85;21088;-69
2022/03/30 22:16:26;;;;;;;8.53;6.25;;;;;;;3.61;56.77;99468.02;3264961;85;20994;-69
2022/03/30 22:21:16;;;;;;;8.88;6.00;;;;;;;3.52;57.14;99466.52;3282903;86;21018;-69
2022/03/30 22:26:08;;;;;;;6.58;5.70;;;;;;;3.44;57.94;99461.19;3298269;86;21117;-69
2022/03/30 22:31:00;;;;;;;7.97;6.30;;;;;;;3.35;58.59;99463.11;3291166;86;21085;-69
2022/03/30 22:35:51;;;;;;;9.93;6.53;;;;;;;3.28;59.11;99461.20;3299634;85;22424;-69
2022/03/30 22:40:46;;;;;;;7.35;5.25;;;;;;;3.17;59.40;99465.20;3304569;86;20997;-69
2022/03/30 22:45:38;;;;;;;10.55;5.78;;;;;;;3.00;59.91;99457.89;3254109;86;21519;-69
2022/03/30 22:50:29;;;;;;;8.35;6.17;;;;;;;2.85;60.40;99457.48;3289562;85;20974;-69
2022/03/30 22:55:21;;;;;;;8.58;6.03;;;;;;;2.82;60.79;99454.83;3272259;86;21584;-69
2022/03/30 23:00:14;;;;;;;8.98;6.03;;;;;;;2.83;61.21;99456.58;3305696;84;21901;-69